createdAt,value
2023-03-11T00:00:47.580Z,5.90
2023-03-11T00:01:49.459Z,5.90
2023-03-11T00:02:54.087Z,5.90
2023-03-11T00:03:59.158Z,5.80
2023-03-11T00:05:01.075Z,5.90
2023-03-11T00:06:04.096Z,5.90
2023-03-11T00:07:13.057Z,6.00
2023-03-11T00:08:20.196Z,6.10
2023-03-11T00:09:23.571Z,6.10
2023-03-11T00:10:31.919Z,6.10
2023-03-11T00:11:34.755Z,6.10
2023-03-11T00:12:36.397Z,6.10
2023-03-11T00:13:41.241Z,6.10
2023-03-11T00:14:42.886Z,6.10
2023-03-11T00:15:52.674Z,6.10
2023-03-11T00:16:54.389Z,6.10
2023-03-11T00:17:56.707Z,6.10
2023-03-11T00:18:58.745Z,5.90
2023-03-11T00:20:01.835Z,5.90
2023-03-11T00:21:03.697Z,5.90
2023-03-11T00:22:05.359Z,5.90
2023-03-11T00:23:08.485Z,5.90
2023-03-11T00:24:12.234Z,5.90
2023-03-11T00:25:14.401Z,5.90
2023-03-11T00:26:16.067Z,5.90
2023-03-11T00:27:18.085Z,5.80
2023-03-11T00:28:22.713Z,5.80
2023-03-11T00:29:24.374Z,5.80
2023-03-11T00:30:28.197Z,5.80
2023-03-11T00:31:30.659Z,5.70
2023-03-11T00:32:32.633Z,5.80
2023-03-11T00:33:34.543Z,5.80
2023-03-11T00:34:36.175Z,5.70
2023-03-11T00:35:38.092Z,5.70
2023-03-11T00:36:39.824Z,5.60
2023-03-11T00:37:45.086Z,5.60
2023-03-11T00:38:46.851Z,5.60
2023-03-11T00:39:48.567Z,5.50
2023-03-11T00:40:51.892Z,5.60
2023-03-11T00:41:55.825Z,5.60
2023-03-11T00:43:00.280Z,5.60
2023-03-11T00:44:04.235Z,5.60
2023-03-11T00:45:08.795Z,5.60
2023-03-11T00:46:11.068Z,5.60
2023-03-11T00:47:12.887Z,5.60
2023-03-11T00:48:15.137Z,5.70
2023-03-11T00:49:17.868Z,5.60
2023-03-11T00:50:37.539Z,5.60
2023-03-11T00:51:39.239Z,5.60
2023-03-11T00:52:41.008Z,5.50
2023-03-11T00:53:43.160Z,5.50
2023-03-11T00:54:46.160Z,5.60
2023-03-11T00:55:47.910Z,5.50
2023-03-11T00:56:49.535Z,5.50
2023-03-11T00:58:11.484Z,5.50
2023-03-11T00:59:13.136Z,5.60
2023-03-11T01:00:21.321Z,5.60
2023-03-11T01:01:23.207Z,5.50
2023-03-11T01:02:26.232Z,5.50
2023-03-11T01:03:28.098Z,5.40
2023-03-11T01:04:29.957Z,5.40
2023-03-11T01:05:33.716Z,5.40
2023-03-11T01:06:45.147Z,5.40
2023-03-11T01:07:47.758Z,5.40
2023-03-11T01:08:49.889Z,5.60
2023-03-11T01:09:51.871Z,5.40
2023-03-11T01:10:56.601Z,5.50
2023-03-11T01:11:59.904Z,5.50
2023-03-11T01:13:02.016Z,5.50
2023-03-11T01:14:07.182Z,5.50
2023-03-11T01:15:14.879Z,5.50
2023-03-11T01:16:17.922Z,5.60
2023-03-11T01:17:22.027Z,5.60
2023-03-11T01:18:23.916Z,5.60
2023-03-11T01:19:25.566Z,5.70
2023-03-11T01:20:30.426Z,5.70
2023-03-11T01:21:32.225Z,5.70
2023-03-11T01:22:34.424Z,5.60
2023-03-11T01:23:37.626Z,5.60
2023-03-11T01:24:40.687Z,5.60
2023-03-11T01:25:42.837Z,5.60
2023-03-11T01:26:45.195Z,5.50
2023-03-11T01:27:47.266Z,5.50
2023-03-11T01:28:49.014Z,5.60
2023-03-11T01:29:50.659Z,5.40
2023-03-11T01:30:52.382Z,5.40
2023-03-11T01:31:54.226Z,5.50
2023-03-11T01:32:57.379Z,5.40
2023-03-11T01:33:59.205Z,5.40
2023-03-11T01:35:01.235Z,5.40
2023-03-11T01:36:03.072Z,5.40
2023-03-11T01:37:04.795Z,5.40
2023-03-11T01:38:06.527Z,5.50
2023-03-11T01:39:08.323Z,5.40
2023-03-11T01:40:21.178Z,5.50
2023-03-11T01:41:24.273Z,5.50
2023-03-11T01:42:26.290Z,5.40
2023-03-11T01:43:43.466Z,5.40
2023-03-11T01:44:45.528Z,5.40
2023-03-11T01:45:51.888Z,5.40
2023-03-11T01:46:54.109Z,5.30
2023-03-11T01:47:59.060Z,5.30
2023-03-11T01:49:05.611Z,5.30
2023-03-11T01:50:12.035Z,5.30
2023-03-11T01:51:15.603Z,5.30
2023-03-11T01:52:18.326Z,5.20
2023-03-11T01:53:22.238Z,5.20
2023-03-11T01:54:27.204Z,5.20
2023-03-11T01:55:30.159Z,5.10
2023-03-11T01:56:32.986Z,5.00
2023-03-11T01:57:36.575Z,4.90
2023-03-11T01:58:41.645Z,4.90
2023-03-11T01:59:52.352Z,4.90
2023-03-11T02:00:58.061Z,5.00
2023-03-11T02:02:06.579Z,4.90
2023-03-11T02:03:33.344Z,5.00
2023-03-11T02:04:36.642Z,5.00
2023-03-11T02:05:39.771Z,4.90
2023-03-11T02:06:41.558Z,5.00
2023-03-11T02:07:43.535Z,4.90
2023-03-11T02:08:45.986Z,4.90
2023-03-11T02:09:47.651Z,4.90
2023-03-11T02:10:51.967Z,4.90
2023-03-11T02:11:54.155Z,4.90
2023-03-11T02:12:57.025Z,4.80
2023-03-11T02:14:03.414Z,4.80
2023-03-11T02:15:06.956Z,4.70
2023-03-11T02:16:10.208Z,4.70
2023-03-11T02:17:12.483Z,4.70
2023-03-11T02:18:18.541Z,4.70
2023-03-11T02:20:06.259Z,4.60
2023-03-11T02:21:10.645Z,4.60
2023-03-11T02:22:13.762Z,4.60
2023-03-11T02:23:17.356Z,4.50
2023-03-11T02:24:35.615Z,4.50
2023-03-11T02:25:50.355Z,4.60
2023-03-11T02:26:55.942Z,4.50
2023-03-11T02:27:59.473Z,4.50
2023-03-11T02:29:04.011Z,4.50
2023-03-11T02:30:07.149Z,4.60
2023-03-11T02:31:09.865Z,4.60
2023-03-11T02:32:13.627Z,4.60
2023-03-11T02:33:16.792Z,4.50
2023-03-11T02:34:31.864Z,4.60
2023-03-11T02:35:33.570Z,4.60
2023-03-11T02:36:41.408Z,4.60
2023-03-11T02:37:50.874Z,4.60
2023-03-11T02:38:53.982Z,4.60
2023-03-11T02:40:15.439Z,4.70
2023-03-11T02:41:17.176Z,4.70
2023-03-11T02:42:33.143Z,4.70
2023-03-11T02:43:41.670Z,4.60
2023-03-11T02:44:46.801Z,4.60
2023-03-11T02:45:50.545Z,4.60
2023-03-11T02:46:55.106Z,4.60
2023-03-11T02:47:58.902Z,4.60
2023-03-11T02:49:01.767Z,4.60
2023-03-11T02:50:04.168Z,4.50
2023-03-11T02:51:07.674Z,4.50
2023-03-11T02:52:12.704Z,4.50
2023-03-11T02:53:16.058Z,4.50
2023-03-11T02:54:19.538Z,4.50
2023-03-11T02:55:21.569Z,4.50
2023-03-11T02:56:24.045Z,4.50
2023-03-11T02:57:26.123Z,4.50
2023-03-11T02:58:27.997Z,4.50
2023-03-11T02:59:30.017Z,4.50
2023-03-11T03:00:32.224Z,4.50
2023-03-11T03:01:34.233Z,4.50
2023-03-11T03:02:37.280Z,4.40
2023-03-11T03:03:38.943Z,4.40
2023-03-11T03:04:40.746Z,4.40
2023-03-11T03:05:44.977Z,4.40
2023-03-11T03:06:47.987Z,4.30
2023-03-11T03:07:54.174Z,4.20
2023-03-11T03:08:57.618Z,4.30
2023-03-11T03:10:01.244Z,4.30
2023-03-11T03:11:03.413Z,4.30
2023-03-11T03:12:05.886Z,4.30
2023-03-11T03:13:07.763Z,4.40
2023-03-11T03:14:11.827Z,4.30
2023-03-11T03:15:16.197Z,4.30
2023-03-11T03:16:18.337Z,4.40
2023-03-11T03:17:20.390Z,4.40
2023-03-11T03:18:22.145Z,4.40
2023-03-11T03:19:25.200Z,4.40
2023-03-11T03:20:27.139Z,4.40
2023-03-11T03:21:28.936Z,4.40
2023-03-11T03:22:31.717Z,4.40
2023-03-11T03:23:35.597Z,4.40
2023-03-11T03:24:39.720Z,4.40
2023-03-11T03:25:45.955Z,4.40
2023-03-11T03:26:49.140Z,4.50
2023-03-11T03:27:50.991Z,4.50
2023-03-11T03:28:52.767Z,4.50
2023-03-11T03:29:54.379Z,4.50
2023-03-11T03:30:57.843Z,4.50
2023-03-11T03:31:59.593Z,4.50
2023-03-11T03:33:01.386Z,4.50
2023-03-11T03:34:03.111Z,4.50
2023-03-11T03:35:05.755Z,4.50
2023-03-11T03:36:11.619Z,4.50
2023-03-11T03:37:13.691Z,4.50
2023-03-11T03:38:24.064Z,4.50
2023-03-11T03:39:25.813Z,4.50
2023-03-11T03:40:28.104Z,4.50
2023-03-11T03:41:29.895Z,4.50
2023-03-11T03:42:31.902Z,4.50
2023-03-11T03:43:36.470Z,4.50
2023-03-11T03:44:38.534Z,4.50
2023-03-11T03:45:40.385Z,4.50
2023-03-11T03:46:42.468Z,4.50
2023-03-11T03:47:45.661Z,4.50
2023-03-11T03:48:47.661Z,4.50
2023-03-11T03:49:52.217Z,4.50
2023-03-11T03:50:53.933Z,4.50
2023-03-11T03:51:55.591Z,4.60
2023-03-11T03:52:57.238Z,4.60
2023-03-11T03:54:03.071Z,4.50
2023-03-11T03:55:06.421Z,4.50
2023-03-11T03:56:11.465Z,4.50
2023-03-11T03:57:13.196Z,4.40
2023-03-11T03:58:15.658Z,4.40
2023-03-11T03:59:17.403Z,4.40
2023-03-11T04:00:21.196Z,4.50
2023-03-11T04:01:23.180Z,4.40
2023-03-11T04:02:26.122Z,4.40
2023-03-11T04:03:28.833Z,4.40
2023-03-11T04:04:33.754Z,4.40
2023-03-11T04:05:35.523Z,4.40
2023-03-11T04:06:39.038Z,4.40
2023-03-11T04:07:42.012Z,4.40
2023-03-11T04:08:44.455Z,4.40
2023-03-11T04:09:46.214Z,4.40
2023-03-11T04:10:59.158Z,4.50
2023-03-11T04:12:00.958Z,4.50
2023-03-11T04:13:02.692Z,4.50
2023-03-11T04:14:05.695Z,4.40
2023-03-11T04:15:09.652Z,4.40
2023-03-11T04:16:22.903Z,4.50
2023-03-11T04:17:25.781Z,4.50
2023-03-11T04:18:27.616Z,4.50
2023-03-11T04:19:29.509Z,4.40
2023-03-11T04:20:31.448Z,4.40
2023-03-11T04:21:34.132Z,4.40
2023-03-11T04:22:36.127Z,4.40
2023-03-11T04:23:38.468Z,4.40
2023-03-11T04:24:40.196Z,4.50
2023-03-11T04:25:42.139Z,4.50
2023-03-11T04:26:44.019Z,4.50
2023-03-11T04:27:46.592Z,4.50
2023-03-11T04:28:50.911Z,4.40
2023-03-11T04:29:53.426Z,4.40
2023-03-11T04:30:55.252Z,4.40
2023-03-11T04:31:57.276Z,4.40
2023-03-11T04:32:59.255Z,4.40
2023-03-11T04:34:01.032Z,4.30
2023-03-11T04:35:03.804Z,4.30
2023-03-11T04:36:07.183Z,4.30
2023-03-11T04:37:09.203Z,4.30
2023-03-11T04:38:11.400Z,4.30
2023-03-11T04:39:14.899Z,4.30
2023-03-11T04:40:17.408Z,4.20
2023-03-11T04:41:20.262Z,4.20
2023-03-11T04:42:23.540Z,4.30
2023-03-11T04:43:25.548Z,4.30
2023-03-11T04:44:27.786Z,4.30
2023-03-11T04:45:31.171Z,4.20
2023-03-11T04:46:33.221Z,4.20
2023-03-11T04:47:37.727Z,4.20
2023-03-11T04:48:39.615Z,4.20
2023-03-11T04:49:41.543Z,4.20
2023-03-11T04:50:43.232Z,4.20
2023-03-11T04:51:45.014Z,4.20
2023-03-11T04:52:47.210Z,4.20
2023-03-11T04:53:48.959Z,4.20
2023-03-11T04:54:52.704Z,4.40
2023-03-11T04:55:54.502Z,4.20
2023-03-11T04:56:56.161Z,4.20
2023-03-11T04:58:00.385Z,4.20
2023-03-11T04:59:02.075Z,4.20
2023-03-11T05:00:09.731Z,4.20
2023-03-11T05:01:11.500Z,4.20
2023-03-11T05:02:13.472Z,4.20
2023-03-11T05:03:16.651Z,4.20
2023-03-11T05:04:18.340Z,4.20
2023-03-11T05:05:20.380Z,4.20
2023-03-11T05:06:22.437Z,4.20
2023-03-11T05:07:24.281Z,4.10
2023-03-11T05:08:30.479Z,4.10
2023-03-11T05:09:32.130Z,4.10
2023-03-11T05:10:33.952Z,4.00
2023-03-11T05:11:36.005Z,3.90
2023-03-11T05:12:37.695Z,3.90
2023-03-11T05:13:39.565Z,3.90
2023-03-11T05:14:41.320Z,3.80
2023-03-11T05:16:00.277Z,3.80
2023-03-11T05:17:03.873Z,3.80
2023-03-11T05:18:06.082Z,3.80
2023-03-11T05:19:27.751Z,3.80
2023-03-11T05:20:32.147Z,3.80
2023-03-11T05:21:33.821Z,3.80
2023-03-11T05:22:36.356Z,3.70
2023-03-11T05:23:38.087Z,3.80
2023-03-11T05:24:40.110Z,3.80
2023-03-11T05:25:41.854Z,3.80
2023-03-11T05:26:48.640Z,3.80
2023-03-11T05:27:53.284Z,3.80
2023-03-11T05:28:55.328Z,3.80
2023-03-11T05:29:57.724Z,3.80
2023-03-11T05:30:59.442Z,3.80
2023-03-11T05:32:02.725Z,3.80
2023-03-11T05:33:04.538Z,3.80
2023-03-11T05:34:06.217Z,3.80
2023-03-11T05:35:09.372Z,3.80
2023-03-11T05:36:11.233Z,3.80
2023-03-11T05:37:13.247Z,3.80
2023-03-11T05:38:16.327Z,3.80
2023-03-11T05:39:19.483Z,3.80
2023-03-11T05:40:22.021Z,3.80
2023-03-11T05:41:23.783Z,3.70
2023-03-11T05:42:25.537Z,3.70
2023-03-11T05:43:31.262Z,3.70
2023-03-11T05:44:33.815Z,3.70
2023-03-11T05:45:38.992Z,3.70
2023-03-11T05:46:40.916Z,3.70
2023-03-11T05:47:42.707Z,3.70
2023-03-11T05:48:45.446Z,3.70
2023-03-11T05:49:48.747Z,3.60
2023-03-11T05:50:54.449Z,3.60
2023-03-11T05:51:58.494Z,3.60
2023-03-11T05:53:02.642Z,3.60
2023-03-11T05:54:15.439Z,3.60
2023-03-11T05:55:17.196Z,3.60
2023-03-11T05:56:21.104Z,3.60
2023-03-11T05:57:22.800Z,3.60
2023-03-11T05:58:26.604Z,3.60
2023-03-11T05:59:29.854Z,3.60
2023-03-11T06:00:32.190Z,3.60
2023-03-11T06:01:34.320Z,3.60
2023-03-11T06:02:36.030Z,3.60
2023-03-11T06:03:39.339Z,3.60
2023-03-11T06:04:42.540Z,3.50
2023-03-11T06:05:49.500Z,3.60
2023-03-11T06:06:52.269Z,3.50
2023-03-11T06:07:54.094Z,3.50
2023-03-11T06:08:55.950Z,3.60
2023-03-11T06:09:58.072Z,3.50
2023-03-11T06:11:05.808Z,3.50
2023-03-11T06:12:08.130Z,3.50
2023-03-11T06:13:11.129Z,3.50
2023-03-11T06:14:14.753Z,3.50
2023-03-11T06:15:16.577Z,3.50
2023-03-11T06:16:22.984Z,3.50
2023-03-11T06:17:25.695Z,3.50
2023-03-11T06:18:27.672Z,3.50
2023-03-11T06:19:29.484Z,3.50
2023-03-11T06:20:31.595Z,3.50
2023-03-11T06:21:35.162Z,3.60
2023-03-11T06:22:39.652Z,3.50
2023-03-11T06:23:41.985Z,3.50
2023-03-11T06:24:46.998Z,3.50
2023-03-11T06:26:00.814Z,3.50
2023-03-11T06:27:03.006Z,3.50
2023-03-11T06:28:04.907Z,3.50
2023-03-11T06:29:14.651Z,3.50
2023-03-11T06:30:17.434Z,3.60
2023-03-11T06:31:22.509Z,3.50
2023-03-11T06:32:24.378Z,3.60
2023-03-11T06:33:26.262Z,3.60
2023-03-11T06:34:28.174Z,3.60
2023-03-11T06:35:31.827Z,3.50
2023-03-11T06:36:36.692Z,3.50
2023-03-11T06:37:38.930Z,3.60
2023-03-11T06:38:40.792Z,3.60
2023-03-11T06:39:42.496Z,3.50
2023-03-11T06:40:48.607Z,3.60
2023-03-11T06:41:50.334Z,3.60
2023-03-11T06:42:53.219Z,3.60
2023-03-11T06:43:55.291Z,3.70
2023-03-11T06:44:57.568Z,3.70
2023-03-11T06:46:01.243Z,3.70
2023-03-11T06:47:03.940Z,3.70
2023-03-11T06:48:06.054Z,3.70
2023-03-11T06:49:12.148Z,3.70
2023-03-11T06:50:14.206Z,3.70
2023-03-11T06:51:16.038Z,4.00
2023-03-11T06:52:18.064Z,3.80
2023-03-11T06:53:19.852Z,3.80
2023-03-11T06:54:21.615Z,3.70
2023-03-11T06:55:23.650Z,3.70
2023-03-11T06:56:25.965Z,3.70
2023-03-11T06:57:29.517Z,3.70
2023-03-11T06:58:32.255Z,3.70
2023-03-11T06:59:34.140Z,3.70
2023-03-11T07:00:42.868Z,3.70
2023-03-11T07:01:44.889Z,3.50
2023-03-11T07:02:47.698Z,3.60
2023-03-11T07:03:51.378Z,3.70
2023-03-11T07:04:53.262Z,3.70
2023-03-11T07:06:00.500Z,3.70
2023-03-11T07:07:02.584Z,3.70
2023-03-11T07:08:04.583Z,3.80
2023-03-11T07:09:07.183Z,3.80
2023-03-11T07:10:20.942Z,3.80
2023-03-11T07:11:25.865Z,3.90
2023-03-11T07:12:27.498Z,3.90
2023-03-11T07:13:29.719Z,4.00
2023-03-11T07:14:31.384Z,4.00
2023-03-11T07:15:47.311Z,4.00
2023-03-11T07:16:50.158Z,4.00
2023-03-11T07:17:51.801Z,4.10
2023-03-11T07:18:59.211Z,4.10
2023-03-11T07:20:00.894Z,3.90
2023-03-11T07:21:04.174Z,4.10
2023-03-11T07:22:05.870Z,4.00
2023-03-11T07:23:07.790Z,4.10
2023-03-11T07:24:13.078Z,4.10
2023-03-11T07:25:15.444Z,4.10
2023-03-11T07:26:18.048Z,4.10
2023-03-11T07:27:20.817Z,4.10
2023-03-11T07:28:27.296Z,4.10
2023-03-11T07:29:28.965Z,4.20
2023-03-11T07:30:30.670Z,4.10
2023-03-11T07:31:34.928Z,4.10
2023-03-11T07:32:36.610Z,4.10
2023-03-11T07:33:40.302Z,4.10
2023-03-11T07:34:42.028Z,4.10
2023-03-11T07:35:44.860Z,4.10
2023-03-11T07:36:46.645Z,4.10
2023-03-11T07:37:51.457Z,4.20
2023-03-11T07:39:04.334Z,4.20
2023-03-11T07:40:08.609Z,4.20
2023-03-11T07:41:12.053Z,4.20
2023-03-11T07:42:13.784Z,4.30
2023-03-11T07:43:17.568Z,4.30
2023-03-11T07:44:20.844Z,4.40
2023-03-11T07:45:23.868Z,4.30
2023-03-11T07:46:27.105Z,4.40
2023-03-11T07:47:29.333Z,4.30
2023-03-11T07:48:31.696Z,4.40
2023-03-11T07:49:33.881Z,4.40
2023-03-11T07:50:35.556Z,4.50
2023-03-11T07:51:47.335Z,4.50
2023-03-11T07:52:49.114Z,4.40
2023-03-11T07:53:53.352Z,4.50
2023-03-11T07:54:55.209Z,4.40
2023-03-11T07:55:58.983Z,4.40
2023-03-11T07:57:01.228Z,4.50
2023-03-11T07:58:03.019Z,4.50
2023-03-11T07:59:05.542Z,4.60
2023-03-11T08:00:10.559Z,4.60
2023-03-11T08:01:19.388Z,4.70
2023-03-11T08:02:23.157Z,4.70
2023-03-11T08:03:26.277Z,4.80
2023-03-11T08:06:46.263Z,4.90
2023-03-11T08:09:09.228Z,5.00
2023-03-11T08:12:49.896Z,5.00
2023-03-11T08:15:18.577Z,4.90
2023-03-11T08:16:42.130Z,4.90
2023-03-11T08:17:47.159Z,4.80
2023-03-11T08:18:50.432Z,4.80
2023-03-11T08:19:52.130Z,4.80
2023-03-11T08:20:55.294Z,4.80
2023-03-11T08:21:57.759Z,4.90
2023-03-11T08:23:01.289Z,4.90
2023-03-11T08:24:06.598Z,4.90
2023-03-11T08:25:08.973Z,4.90
2023-03-11T08:26:12.972Z,4.90
2023-03-11T08:27:14.733Z,4.90
2023-03-11T08:28:16.678Z,4.90
2023-03-11T08:29:18.457Z,4.90
2023-03-11T08:30:20.565Z,5.00
2023-03-11T08:31:25.306Z,5.10
2023-03-11T08:32:31.465Z,5.10
2023-03-11T08:33:34.590Z,5.20
2023-03-11T08:34:38.018Z,5.20
2023-03-11T08:35:39.752Z,5.30
2023-03-11T08:36:41.579Z,5.40
2023-03-11T08:37:43.204Z,5.40
2023-03-11T08:38:45.129Z,5.40
2023-03-11T08:39:47.046Z,5.40
2023-03-11T08:40:48.690Z,5.30
2023-03-11T08:41:50.714Z,5.30
2023-03-11T08:42:52.432Z,5.30
2023-03-11T08:43:54.322Z,5.40
2023-03-11T08:44:56.211Z,5.40
2023-03-11T08:46:00.682Z,5.40
2023-03-11T08:47:02.438Z,5.50
2023-03-11T08:48:09.550Z,5.60
2023-03-11T08:49:12.898Z,5.60
2023-03-11T08:50:23.235Z,5.60
2023-03-11T08:51:27.220Z,5.60
2023-03-11T08:52:30.698Z,5.70
2023-03-11T08:53:37.768Z,5.70
2023-03-11T08:54:44.712Z,5.80
2023-03-11T08:55:46.994Z,5.80
2023-03-11T08:56:49.909Z,5.80
2023-03-11T08:57:55.266Z,5.80
2023-03-11T08:58:57.395Z,5.80
2023-03-11T08:59:59.923Z,5.80
2023-03-11T09:01:01.732Z,5.80
2023-03-11T09:02:03.441Z,5.80
2023-03-11T09:03:05.363Z,5.80
2023-03-11T09:04:08.472Z,5.70
2023-03-11T09:05:10.341Z,5.80
2023-03-11T09:06:15.653Z,5.80
2023-03-11T09:07:17.582Z,5.80
2023-03-11T09:08:19.227Z,5.80
2023-03-11T09:09:20.955Z,5.90
2023-03-11T09:10:22.555Z,5.90
2023-03-11T09:11:24.457Z,6.00
2023-03-11T09:12:26.123Z,6.00
2023-03-11T09:13:28.207Z,6.10
2023-03-11T09:14:29.859Z,6.10
2023-03-11T09:15:32.355Z,6.10
2023-03-11T09:16:34.216Z,6.20
2023-03-11T09:17:36.320Z,6.20
2023-03-11T09:18:37.984Z,6.20
2023-03-11T09:19:39.626Z,6.30
2023-03-11T09:20:42.156Z,6.40
2023-03-11T09:21:43.814Z,6.40
2023-03-11T09:22:45.556Z,6.50
2023-03-11T09:23:47.883Z,6.50
2023-03-11T09:24:49.546Z,6.50
2023-03-11T09:25:51.242Z,6.60
2023-03-11T09:26:52.926Z,6.60
2023-03-11T09:27:54.701Z,6.70
2023-03-11T09:28:56.658Z,6.70
2023-03-11T09:29:58.421Z,6.70
2023-03-11T09:31:00.146Z,6.80
2023-03-11T09:32:01.807Z,6.80
2023-03-11T09:33:03.588Z,6.80
2023-03-11T09:34:07.445Z,6.90
2023-03-11T09:35:10.146Z,6.90
2023-03-11T09:36:17.726Z,6.90
2023-03-11T09:37:19.489Z,6.90
2023-03-11T09:38:21.138Z,6.90
2023-03-11T09:39:23.068Z,7.00
2023-03-11T09:40:27.078Z,6.90
2023-03-11T09:41:57.416Z,6.90
2023-03-11T09:43:16.710Z,6.70
2023-03-11T09:44:34.143Z,6.70
2023-03-11T09:45:41.031Z,6.60
2023-03-11T09:47:15.063Z,6.60
2023-03-11T09:48:40.375Z,6.60
2023-03-11T09:50:22.285Z,6.50
2023-03-11T09:51:32.381Z,6.50
2023-03-11T09:53:05.407Z,6.50
2023-03-11T09:54:11.898Z,6.60
2023-03-11T09:55:42.173Z,6.60
2023-03-11T09:56:44.654Z,6.70
2023-03-11T09:57:47.232Z,6.70
2023-03-11T09:59:09.145Z,6.70
2023-03-11T10:00:12.910Z,6.70
2023-03-11T10:01:34.256Z,6.70
2023-03-11T10:02:37.497Z,6.80
2023-03-11T10:03:40.449Z,6.80
2023-03-11T10:04:51.638Z,6.80
2023-03-11T10:06:00.152Z,6.80
2023-03-11T10:07:12.213Z,6.80
2023-03-11T10:08:34.130Z,6.80
2023-03-11T10:09:48.951Z,6.90
2023-03-11T10:11:09.700Z,6.90
2023-03-11T10:12:26.276Z,7.00
2023-03-11T10:13:43.159Z,7.00
2023-03-11T10:15:23.729Z,7.10
2023-03-11T10:16:42.063Z,7.20
2023-03-11T10:18:20.990Z,7.30
2023-03-11T10:19:32.865Z,7.20
2023-03-11T10:20:40.584Z,7.20
2023-03-11T10:22:17.405Z,7.20
2023-03-11T10:23:54.578Z,7.10
2023-03-11T10:25:00.129Z,7.10
2023-03-11T10:26:32.705Z,7.00
2023-03-11T10:27:48.315Z,7.00
2023-03-11T10:29:10.333Z,7.00
2023-03-11T10:30:26.285Z,7.10
2023-03-11T10:31:40.296Z,7.10
2023-03-11T10:32:51.039Z,7.20
2023-03-11T10:34:01.911Z,7.20
2023-03-11T10:35:19.542Z,7.20
2023-03-11T10:36:26.480Z,7.20
2023-03-11T10:37:48.394Z,7.20
2023-03-11T10:38:53.762Z,7.30
2023-03-11T10:39:57.866Z,7.30
2023-03-11T10:41:34.372Z,7.20
2023-03-11T10:42:37.242Z,7.10
2023-03-11T10:43:43.714Z,7.00
2023-03-11T10:44:47.190Z,7.00
2023-03-11T10:45:54.228Z,6.90
2023-03-11T10:46:56.120Z,7.00
2023-03-11T10:47:58.171Z,7.00
2023-03-11T10:49:01.170Z,7.10
2023-03-11T10:50:02.934Z,7.10
2023-03-11T10:51:15.929Z,7.20
2023-03-11T10:52:17.754Z,7.20
2023-03-11T10:53:21.001Z,7.30
2023-03-11T10:54:31.788Z,7.30
2023-03-11T10:55:33.601Z,7.40
2023-03-11T10:56:36.960Z,7.50
2023-03-11T10:57:50.627Z,7.50
2023-03-11T10:58:52.403Z,7.60
2023-03-11T10:59:56.640Z,7.60
2023-03-11T11:01:04.451Z,7.70
2023-03-11T11:02:52.060Z,7.70
2023-03-11T11:03:56.101Z,7.70
2023-03-11T11:05:22.864Z,7.80
2023-03-11T11:06:32.395Z,7.80
2023-03-11T11:07:35.992Z,7.80
2023-03-11T11:08:37.901Z,7.80
2023-03-11T11:09:39.727Z,7.70
2023-03-11T11:11:00.706Z,7.70
2023-03-11T11:12:13.507Z,7.70
2023-03-11T11:13:15.388Z,7.70
2023-03-11T11:14:17.071Z,7.70
2023-03-11T11:15:40.159Z,7.70
2023-03-11T11:16:42.302Z,7.80
2023-03-11T11:17:47.761Z,7.90
2023-03-11T11:19:07.860Z,7.90
2023-03-11T11:20:18.383Z,8.00
2023-03-11T11:21:37.339Z,8.10
2023-03-11T11:22:55.617Z,8.20
2023-03-11T11:24:22.511Z,8.20
2023-03-11T11:25:43.050Z,8.30
2023-03-11T11:27:05.060Z,8.30
2023-03-11T11:28:21.635Z,8.30
2023-03-11T11:29:23.560Z,8.30
2023-03-11T11:30:30.169Z,8.30
2023-03-11T11:31:31.885Z,8.40
2023-03-11T11:32:39.330Z,8.40
2023-03-11T11:33:52.196Z,8.40
2023-03-11T11:35:04.052Z,8.50
2023-03-11T11:36:12.350Z,8.50
2023-03-11T11:37:14.655Z,8.50
2023-03-11T11:38:16.376Z,8.50
2023-03-11T11:39:23.739Z,8.50
2023-03-11T11:40:32.857Z,8.60
2023-03-11T11:41:36.893Z,8.60
2023-03-11T11:42:44.405Z,8.60
2023-03-11T11:44:05.906Z,8.60
2023-03-11T11:45:22.806Z,8.60
2023-03-11T11:46:51.874Z,8.60
2023-03-11T11:47:57.990Z,8.60
2023-03-11T11:49:20.745Z,8.50
2023-03-11T11:50:36.486Z,8.40
2023-03-11T11:51:47.373Z,8.40
2023-03-11T11:52:55.600Z,8.40
2023-03-11T11:54:12.243Z,8.40
2023-03-11T11:55:19.303Z,8.40
2023-03-11T11:56:25.152Z,8.40
2023-03-11T11:57:27.162Z,8.40
2023-03-11T11:58:30.494Z,8.40
2023-03-11T11:59:35.257Z,8.40
2023-03-11T12:00:57.762Z,8.40
2023-03-11T12:02:29.727Z,8.40
2023-03-11T12:03:43.607Z,8.30
2023-03-11T12:04:56.172Z,8.40
2023-03-11T12:06:33.087Z,8.40
2023-03-11T12:07:49.265Z,8.40
2023-03-11T12:09:14.884Z,8.40
2023-03-11T12:10:26.946Z,8.30
2023-03-11T12:11:52.507Z,8.20
2023-03-11T12:13:18.358Z,8.10
2023-03-11T12:14:32.112Z,8.10
2023-03-11T12:15:46.550Z,8.10
2023-03-11T12:17:04.247Z,8.10
2023-03-11T12:18:16.370Z,8.10
2023-03-11T12:19:41.548Z,8.20
2023-03-11T12:20:54.036Z,8.20
2023-03-11T12:22:01.884Z,8.20
2023-03-11T12:23:13.835Z,8.10
2023-03-11T12:24:44.776Z,8.10
2023-03-11T12:25:52.258Z,8.10
2023-03-11T12:27:05.181Z,8.20
2023-03-11T12:28:24.530Z,8.30
2023-03-11T12:29:34.230Z,8.30
2023-03-11T12:30:44.062Z,8.40
2023-03-11T12:31:47.808Z,8.40
2023-03-11T12:32:57.795Z,8.50
2023-03-11T12:34:03.189Z,8.60
2023-03-11T12:35:22.999Z,8.70
2023-03-11T12:36:33.989Z,8.80
2023-03-11T12:37:37.352Z,8.90
2023-03-11T12:38:40.699Z,9.00
2023-03-11T12:39:42.703Z,9.10
2023-03-11T12:40:50.290Z,9.10
2023-03-11T12:42:10.942Z,9.20
2023-03-11T12:43:30.854Z,9.30
2023-03-11T12:44:33.615Z,9.40
2023-03-11T12:45:55.401Z,9.40
2023-03-11T12:47:00.222Z,9.40
2023-03-11T12:48:29.291Z,9.50
2023-03-11T12:49:43.372Z,9.60
2023-03-11T12:50:45.112Z,9.60
2023-03-11T12:52:11.444Z,9.70
2023-03-11T12:53:17.952Z,9.80
2023-03-11T12:54:36.588Z,9.80
2023-03-11T12:55:39.864Z,9.80
2023-03-11T12:56:45.302Z,9.90
2023-03-11T12:57:46.939Z,9.90
2023-03-11T12:59:01.151Z,9.90
2023-03-11T13:00:18.214Z,9.90
2023-03-11T13:01:47.577Z,9.90
2023-03-11T13:03:17.790Z,10.00
2023-03-11T13:04:26.998Z,10.00
2023-03-11T13:05:59.393Z,10.10
2023-03-11T13:07:23.305Z,10.10
2023-03-11T13:08:49.000Z,10.10
2023-03-11T13:10:13.359Z,10.10
2023-03-11T13:11:32.601Z,10.10
2023-03-11T13:12:54.594Z,10.00
2023-03-11T13:14:21.723Z,10.00
2023-03-11T13:16:04.588Z,10.00
2023-03-11T13:17:28.443Z,9.90
2023-03-11T13:18:32.742Z,9.90
2023-03-11T13:19:36.845Z,9.80
2023-03-11T13:20:41.514Z,9.70
2023-03-11T13:21:44.438Z,9.70
2023-03-11T13:22:52.371Z,9.70
2023-03-11T13:24:25.751Z,9.60
2023-03-11T13:25:35.511Z,9.70
2023-03-11T13:26:41.707Z,9.70
2023-03-11T13:27:47.451Z,9.70
2023-03-11T13:28:58.294Z,9.80
2023-03-11T13:30:04.106Z,9.90
2023-03-11T13:31:17.942Z,10.00
2023-03-11T13:32:27.116Z,10.10
2023-03-11T13:33:55.407Z,10.20
2023-03-11T13:35:20.539Z,10.20
2023-03-11T13:36:48.468Z,10.30
2023-03-11T13:38:08.680Z,10.30
2023-03-11T13:39:41.718Z,10.30
2023-03-11T13:40:45.472Z,10.20
2023-03-11T13:41:47.734Z,10.30
2023-03-11T13:42:51.641Z,10.30
2023-03-11T13:43:55.504Z,10.40
2023-03-11T13:44:58.779Z,10.40
2023-03-11T13:46:08.383Z,10.50
2023-03-11T13:47:15.062Z,10.60
2023-03-11T13:48:18.882Z,10.70
2023-03-11T13:49:39.898Z,10.70
2023-03-11T13:50:53.486Z,10.80
2023-03-11T13:51:57.421Z,11.00
2023-03-11T13:53:02.713Z,11.00
2023-03-11T13:54:29.907Z,11.10
2023-03-11T13:55:35.761Z,11.10
2023-03-11T13:56:44.633Z,11.10
2023-03-11T13:57:55.186Z,11.20
2023-03-11T13:59:26.941Z,11.20
2023-03-11T14:00:30.762Z,11.20
2023-03-11T14:01:32.434Z,11.30
2023-03-11T14:02:35.990Z,11.40
2023-03-11T14:03:42.111Z,11.40
2023-03-11T14:05:26.886Z,11.50
2023-03-11T14:06:30.844Z,11.50
2023-03-11T14:07:35.199Z,11.50
2023-03-11T14:08:39.029Z,11.50
2023-03-11T14:09:40.935Z,11.50
2023-03-11T14:10:56.170Z,11.50
2023-03-11T14:12:13.153Z,11.50
2023-03-11T14:13:18.863Z,11.50
2023-03-11T14:14:45.001Z,11.50
2023-03-11T14:16:07.401Z,11.60
2023-03-11T14:17:18.549Z,11.50
2023-03-11T14:18:43.151Z,11.50
2023-03-11T14:20:16.664Z,11.40
2023-03-11T14:21:23.107Z,11.30
2023-03-11T14:22:24.859Z,11.30
2023-03-11T14:23:34.640Z,11.30
2023-03-11T14:24:38.057Z,11.20
2023-03-11T14:25:41.168Z,11.30
2023-03-11T14:26:43.556Z,11.30
2023-03-11T14:27:55.588Z,11.40
2023-03-11T14:28:59.678Z,11.50
2023-03-11T14:30:01.567Z,11.50
2023-03-11T14:31:04.486Z,11.70
2023-03-11T14:32:28.670Z,11.70
2023-03-11T14:33:30.686Z,11.80
2023-03-11T14:34:39.646Z,11.80
2023-03-11T14:35:41.691Z,11.80
2023-03-11T14:36:46.046Z,11.90
2023-03-11T14:37:50.023Z,11.90
2023-03-11T14:38:51.981Z,12.00
2023-03-11T14:39:54.254Z,12.00
2023-03-11T14:41:06.424Z,11.90
2023-03-11T14:42:35.344Z,11.90
2023-03-11T14:43:41.462Z,11.80
2023-03-11T14:44:46.311Z,11.70
2023-03-11T14:45:50.296Z,11.70
2023-03-11T14:46:55.804Z,11.60
2023-03-11T14:48:03.462Z,11.50
2023-03-11T14:49:12.105Z,11.40
2023-03-11T14:50:18.400Z,11.20
2023-03-11T14:51:25.660Z,11.10
2023-03-11T14:52:42.321Z,11.10